AUTO METAR SSNG 261800Z 18003KT CAVOK 27/19 Q1016